Latest Weather Observations for Minnipa RS

IDS60801

Issued at 3:42 pm CST Saturday 4 July 2020 (issued every 10 minutes, with the page automatically refreshed every 10 minutes)

About weather observations | Map of weather stations | Latest weather observations for SA | Other Formats
Station Details ID: 018195 Name: MINNIPA PIRSA Lat: -32.84 Lon: 135.15 Height: 165.0 m
Data from the previous 72 hours. | See also: Recent months at Minnipa RS
Date/Time
CST
Temp
°C
App
Temp
°C
Dew
Point
°C
Rel
Hum
%
Delta-T
°C
Wind Press
QNH
hPa
Press
MSL
hPa
Rain since
9am
mm
Dir  Spd
km/h
Gust
km/h
Spd
kts
Gust
kts
04/03:30pm 12.8 10.9 7.7 71 2.5 SSW 7 11 4 6 1032.5 1032.6 0.0
04/03:00pm 12.3 10.2 8.2 76 2.0 SSW 9 13 5 7 1032.7 1032.8 0.0
04/02:30pm 11.7 9.8 8.9 83 1.4 SSE 9 15 5 8 1032.8 1032.9 0.0
04/02:00pm 12.0 9.7 9.0 82 1.5 SSW 11 20 6 11 1033.0 1033.2 0.0
04/01:30pm 12.2 11.0 9.6 84 1.3 SSE 6 9 3 5 1033.3 1033.5 0.0
04/01:00pm 11.2 8.5 8.8 85 1.2 S 13 19 7 10 1033.6 1033.8 0.0
04/12:30pm 12.1 10.6 9.1 82 1.5 SSE 7 13 4 7 1033.8 1034.0 0.0
04/12:00pm 11.2 8.8 8.8 85 1.2 SSE 11 17 6 9 1034.1 1034.3 0.0
04/11:30am 11.0 8.5 8.4 84 1.3 S 11 17 6 9 1034.5 1034.7 0.0
04/11:00am 10.8 8.1 9.1 89 0.9 SSE 13 17 7 9 1034.6 1034.8 0.0
04/10:30am 9.8 7.3 8.4 91 0.7 S 11 17 6 9 1034.7 1034.9 0.0
04/10:00am 9.4 6.5 8.0 91 0.7 SSE 13 17 7 9 1034.6 1034.8 0.0
04/09:30am 9.6 7.1 8.2 91 0.7 SSE 11 15 6 8 1034.2 1034.4 0.0
04/09:00am 9.4 6.9 8.0 91 0.7 SSE 11 15 6 8 1033.9 1034.1 0.0
04/08:30am 8.9 7.0 7.5 91 0.7 S 7 9 4 5 1033.5 1033.7 0.0
04/08:00am 7.8 5.3 6.4 91 0.6 SSW 9 9 5 5 1033.4 1033.6 0.0
04/07:30am 7.6 5.0 6.2 91 0.6 S 9 13 5 7 1033.1 1033.3 0.0
04/07:00am 7.9 5.4 6.7 92 0.6 S 9 13 5 7 1032.9 1033.1 0.0
04/06:30am 7.4 5.8 6.2 92 0.5 S 4 9 2 5 1032.6 1032.7 0.0
04/06:00am 6.9 4.5 5.4 90 0.7 SSE 7 9 4 5 1032.3 1032.4 0.0
04/05:30am 7.8 5.3 6.4 91 0.6 SSE 9 13 5 7 1032.2 1032.3 0.0
04/05:00am 8.0 5.9 6.8 92 0.6 SSE 7 11 4 6 1032.3 1032.4 0.0
04/04:30am 7.5 5.5 6.1 91 0.6 SSE 6 6 3 3 1032.4 1032.5 0.0
04/04:00am 8.1 6.2 6.9 92 0.6 SSE 6 9 3 5 1032.7 1032.8 0.0
04/03:30am 8.1 5.7 6.9 92 0.6 SSE 9 11 5 6 1032.6 1032.7 0.0
04/03:00am 7.3 5.1 6.1 92 0.5 SE 7 9 4 5 1032.7 1032.8 0.0
04/02:30am 7.4 4.4 6.0 91 0.6 SE 11 13 6 7 1032.8 1032.9 0.0
04/02:00am 8.1 5.6 6.7 91 0.7 SE 9 11 5 6 1032.9 1033.1 0.0
04/01:30am 7.6 5.1 6.4 92 0.5 ESE 9 9 5 5 1032.9 1033.1 0.0
04/01:00am 7.6 4.7 6.4 92 0.6 SE 11 15 6 8 1033.0 1033.2 0.0
04/12:30am 6.7 4.0 5.5 92 0.5 SE 9 11 5 6 1033.0 1033.2 0.0
04/12:00am 5.8 3.2 4.3 90 0.6 SSE 7 7 4 4 1032.8 1032.9 0.0
 
Date/Time
CST
Temp
°C
App
Temp
°C
Dew
Point
°C
Rel
Hum
%
Delta-T
°C
Wind Press
QNH
hPa
Press
MSL
hPa
Rain since
9am
mm
Dir  Spd
km/h
Gust
km/h
Spd
kts
Gust
kts
03/11:30pm 6.2 3.9 4.8 91 0.6 S 6 7 3 4 1032.8 1032.9 0.0
03/11:00pm 6.2 5.0 4.7 90 0.7 CALM 0 0 0 0 1032.9 1033.1 0.0
03/10:30pm 5.7 3.2 4.0 89 0.7 S 6 6 3 3 1032.6 1032.7 0.0
03/10:00pm 6.2 3.6 4.4 88 0.8 S 7 7 4 4 1032.5 1032.6 0.0
03/09:30pm 6.7 4.2 4.5 86 1.0 SSE 7 9 4 5 1032.3 1032.4 0.0
03/09:00pm 7.6 4.9 5.4 86 1.0 S 9 11 5 6 1032.3 1032.4 0.0
03/08:30pm 7.5 4.3 5.1 85 1.1 S 11 13 6 7 1032.2 1032.3 0.0
03/08:00pm 8.1 5.4 5.4 83 1.2 SSW 9 11 5 6 1031.9 1032.0 0.0
03/07:30pm 8.8 6.2 5.9 82 1.3 SSW 9 11 5 6 1031.7 1031.8 0.0
03/07:00pm 9.1 6.5 6.0 81 1.4 SSW 9 11 5 6 1031.6 1031.7 0.0
03/06:30pm 9.8 6.8 6.2 78 1.7 SSW 11 13 6 7 1031.3 1031.4 0.0
03/06:00pm 11.1 7.5 6.6 74 2.1 SSW 15 20 8 11 1030.9 1031.0 0.0
03/05:30pm 12.4 8.5 7.3 71 2.5 SSW 17 24 9 13 1030.5 1030.6 0.0
03/05:00pm 12.5 9.0 8.6 77 2.0 SSW 17 22 9 12 1030.2 1030.3 0.0
03/04:30pm 12.7 8.8 8.8 77 2.0 SSW 19 24 10 13 1029.7 1029.9 0.0
03/04:00pm 12.9 9.1 9.2 78 1.9 SSW 19 24 10 13 1029.5 1029.7 0.0
03/03:30pm 14.0 8.7 8.4 69 2.8 SSW 26 33 14 18 1029.4 1029.6 0.0
03/03:00pm 14.4 8.7 8.4 67 3.0 SSW 28 35 15 19 1029.1 1029.3 0.0
03/02:30pm 15.8 11.0 7.3 57 4.2 SW 22 32 12 17 1028.9 1029.1 0.0
03/02:00pm 14.4 9.5 6.7 60 3.8 SW 22 30 12 16 1028.9 1029.1 0.0
03/01:30pm 14.3 9.4 8.3 67 3.0 SSW 24 32 13 17 1029.0 1029.2 0.0
03/01:00pm 15.6 10.5 7.6 59 4.0 SW 24 33 13 18 1029.2 1029.4 0.0
03/12:30pm 15.1 10.3 7.4 60 3.8 SW 22 30 12 16 1029.4 1029.6 0.0
03/12:00pm 13.7 8.5 8.7 72 2.5 SSW 26 35 14 19 1029.6 1029.8 0.0
03/11:30am 14.0 10.2 9.8 76 2.2 SW 20 32 11 17 1029.7 1029.9 0.0
03/11:00am 13.2 9.7 10.2 82 1.6 SW 19 26 10 14 1029.7 1029.9 0.0
03/10:30am 12.7 9.8 11.1 90 0.8 SW 17 22 9 12 1029.6 1029.8 0.0
03/10:00am 11.3 9.4 10.5 95 0.4 WNW 11 13 6 7 1029.3 1029.5 0.0
03/09:30am 9.9 7.2 9.1 95 0.4 WNW 13 17 7 9 1028.8 1029.0 0.0
03/09:00am 10.0 7.4 9.2 95 0.4 WNW 13 17 7 9 1028.2 1028.4 0.8
03/08:30am 9.4 6.2 8.6 95 0.4 W 15 19 8 10 1028.0 1028.2 0.8
03/08:00am 8.6 5.6 7.8 95 0.4 W 13 20 7 11 1027.6 1027.7 0.8
03/07:30am 8.3 5.3 7.5 95 0.4 W 13 17 7 9 1027.1 1027.2 0.6
03/07:00am 6.7 2.9 5.8 94 0.4 NW 15 17 8 9 1026.7 1026.8 0.6
03/06:30am 6.3 2.4 5.4 94 0.4 NNW 15 19 8 10 1026.2 1026.3 0.6
03/06:00am 5.9 1.9 5.0 94 0.4 NNW 15 17 8 9 1025.9 1026.0 0.6
03/05:30am 5.9 1.9 5.0 94 0.4 NNW 15 17 8 9 1025.8 1025.9 0.6
03/05:00am 6.1 2.2 5.2 94 0.4 NNW 15 17 8 9 1025.6 1025.7 0.4
03/04:30am 6.4 2.5 5.5 94 0.4 NNW 15 17 8 9 1025.4 1025.5 0.4
03/04:00am 6.5 3.0 5.6 94 0.4 NNW 13 17 7 9 1025.5 1025.6 0.4
03/03:30am 6.5 2.6 5.5 93 0.4 NNW 15 17 8 9 1025.5 1025.6 0.4
03/03:00am 6.9 3.1 6.0 94 0.4 NW 15 17 8 9 1025.6 1025.7 0.4
03/02:30am 6.8 3.4 5.7 93 0.5 NNW 13 15 7 8 1025.4 1025.5 0.4
03/02:00am 7.0 3.2 5.9 93 0.5 NNW 15 17 8 9 1025.3 1025.4 0.4
03/01:30am 7.1 3.7 6.0 93 0.5 NNW 13 15 7 8 1025.2 1025.3 0.4
03/01:00am 7.5 4.2 6.4 93 0.5 NW 13 15 7 8 1025.2 1025.3 0.4
03/12:30am 7.7 4.4 6.6 93 0.5 NW 13 15 7 8 1025.2 1025.3 0.4
03/12:00am 7.8 4.5 6.6 92 0.6 NNW 13 17 7 9 1025.2 1025.3 0.4
 
Date/Time
CST
Temp
°C
App
Temp
°C
Dew
Point
°C
Rel
Hum
%
Delta-T
°C
Wind Press
QNH
hPa
Press
MSL
hPa
Rain since
9am
mm
Dir  Spd
km/h
Gust
km/h
Spd
kts
Gust
kts
02/11:30pm 7.9 4.7 6.7 92 0.6 NNW 13 15 7 8 1025.2 1025.3 0.4
02/11:00pm 8.0 5.1 6.6 91 0.7 NW 11 13 6 7 1025.1 1025.2 0.4
02/10:30pm 8.4 5.6 6.9 90 0.7 NW 11 13 6 7 1025.2 1025.3 0.4
02/10:00pm 8.9 6.6 7.4 90 0.7 NW 9 13 5 7 1025.0 1025.1 0.4
02/09:30pm 9.3 6.6 7.4 88 0.9 WNW 11 17 6 9 1025.0 1025.1 0.2
02/09:00pm 8.5 5.5 5.8 83 1.2 NW 11 13 6 7 1024.6 1024.7 0.2
02/08:30pm 8.8 5.4 5.9 82 1.3 NW 13 15 7 8 1024.3 1024.4 0.2
02/08:00pm 8.6 5.6 5.9 83 1.2 NW 11 13 6 7 1024.1 1024.2 0.2
02/07:30pm 8.5 5.8 5.4 81 1.4 WNW 9 11 5 6 1023.8 1023.9 0.2
02/07:00pm 9.1 6.4 5.7 79 1.6 NW 9 11 5 6 1023.5 1023.6 0.2
02/06:30pm 9.6 7.0 6.0 78 1.7 WNW 9 11 5 6 1023.1 1023.3 0.2
02/06:00pm 10.2 7.7 6.4 77 1.8 WNW 9 13 5 7 1022.7 1022.9 0.2
02/05:30pm 11.4 8.5 6.5 72 2.3 WNW 11 13 6 7 1022.5 1022.6 0.2
02/05:00pm 12.7 9.0 6.5 66 3.0 W 15 22 8 12 1022.2 1022.3 0.2
02/04:30pm 13.4 8.9 6.0 61 3.5 WSW 19 22 10 12 1022.0 1022.1 0.2
02/04:00pm 13.2 9.4 5.9 61 3.5 WSW 15 20 8 11 1022.0 1022.1 0.2
02/03:30pm 12.9 7.7 5.6 61 3.4 SW 22 30 12 16 1022.0 1022.1 0.2
02/03:00pm 13.6 8.6 4.7 55 4.1 WSW 20 28 11 15 1021.7 1021.8 0.2
02/02:30pm 14.6 9.9 5.9 56 4.2 WSW 20 28 11 15 1021.5 1021.6 0.2
02/02:00pm 14.1 9.5 6.7 61 3.6 SW 20 28 11 15 1021.4 1021.5 0.2
02/01:30pm 14.0 9.4 6.4 60 3.7 SW 20 30 11 16 1021.5 1021.6 0.2
02/01:00pm 12.7 8.4 7.2 69 2.7 SW 19 28 10 15 1021.8 1021.9 0.2
02/12:30pm 13.6 9.7 7.2 65 3.1 SW 17 24 9 13 1021.8 1021.9 0.2
02/12:00pm 12.9 9.3 6.7 66 3.0 SW 15 20 8 11 1022.0 1022.1 0.2
02/11:30am 12.2 8.6 6.9 70 2.6 SSW 15 19 8 10 1022.2 1022.3 0.0
02/11:00am 12.5 9.1 7.8 73 2.3 SW 15 22 8 12 1022.1 1022.2 0.0
02/10:30am 11.4 8.7 7.5 77 1.9 WSW 11 15 6 8 1022.2 1022.3 0.0
02/10:00am 10.3 7.9 7.0 80 1.6 W 9 15 5 8 1021.8 1021.9 0.0
02/09:30am 9.2 6.8 6.8 85 1.1 WNW 9 13 5 7 1021.3 1021.4 0.0
02/09:00am 7.9 5.6 5.5 85 1.1 NNW 7 9 4 5 1020.7 1020.8 -
02/08:30am 7.1 3.9 4.9 86 1.0 NW 11 13 6 7 1020.6 1020.7 -
02/08:00am 6.6 4.0 4.4 86 1.0 WNW 7 11 4 6 1020.0 1020.1 -
02/07:30am 6.0 2.6 4.0 87 0.9 NNW 11 13 6 7 1019.5 1019.6 -
02/07:00am 5.7 1.9 3.9 88 0.8 NNW 13 15 7 8 1019.3 1019.4 -
02/06:30am 6.3 2.6 4.3 87 0.9 NW 13 15 7 8 1018.9 1019.0 -
02/06:00am 6.0 3.3 3.7 85 1.0 WNW 7 9 4 5 1018.7 1018.8 -
02/05:30am 7.4 3.4 5.0 85 1.1 W 15 19 8 10 1018.4 1018.5 -
02/05:00am 7.1 3.5 4.9 86 1.0 W 13 17 7 9 1018.1 1018.2 -
02/04:30am 6.8 3.6 5.1 89 0.8 WNW 11 15 6 8 1017.9 1018.0 -
02/04:00am 6.8 3.6 5.0 88 0.8 WNW 11 15 6 8 1017.7 1017.8 -
02/03:30am 7.8 4.4 5.8 87 0.9 WNW 13 15 7 8 1017.7 1017.8 -
02/03:00am 8.2 5.2 6.0 86 1.0 W 11 15 6 8 1017.7 1017.8 -
02/02:30am 8.8 5.5 6.6 86 1.0 W 13 20 7 11 1017.7 1017.8 -
02/02:00am 8.9 4.9 6.5 85 1.1 W 17 24 9 13 1017.6 1017.6 -
02/01:30am 8.6 4.7 5.5 81 1.4 W 15 19 8 10 1017.2 1017.2 -
02/01:00am 8.0 4.8 4.9 81 1.4 WNW 11 15 6 8 1017.2 1017.2 0.8
02/12:30am 8.7 5.7 5.8 82 1.3 W 11 17 6 9 1017.0 1017.1 0.8
02/12:00am 8.8 5.4 5.9 82 1.3 W 13 17 7 9 1016.8 1016.9 0.8
 
Date/Time
CST
Temp
°C
App
Temp
°C
Dew
Point
°C
Rel
Hum
%
Delta-T
°C
Wind Press
QNH
hPa
Press
MSL
hPa
Rain since
9am
mm
Dir  Spd
km/h
Gust
km/h
Spd
kts
Gust
kts
01/11:30pm 9.7 5.3 6.4 80 1.5 W 19 24 10 13 1016.8 1016.9 0.8
01/11:00pm 9.9 5.9 6.8 81 1.5 WNW 17 20 9 11 1016.6 1016.7 0.8
01/10:30pm 10.5 6.0 6.8 78 1.8 W 20 30 11 16 1016.4 1016.5 0.8
01/10:00pm 10.3 6.0 6.8 79 1.7 WNW 19 24 10 13 1016.0 1016.1 0.8
01/09:30pm 9.9 5.9 6.8 81 1.5 WNW 17 20 9 11 1015.8 1015.9 0.8
01/09:00pm 10.1 6.3 7.5 84 1.3 WNW 17 20 9 11 1015.5 1015.6 0.8
01/08:30pm 10.4 6.4 8.3 87 1.0 NW 19 22 10 12 1015.1 1015.2 0.8
01/08:00pm 10.5 6.9 8.4 87 1.0 NW 17 20 9 11 1014.8 1014.9 0.8
01/07:30pm 11.2 7.1 8.8 85 1.2 WNW 20 28 11 15 1014.4 1014.5 0.8
01/07:00pm 11.3 7.2 8.7 84 1.3 WNW 20 32 11 17 1014.0 1014.1 0.8
01/06:30pm 11.1 6.8 9.2 88 1.0 NW 22 28 12 15 1013.4 1013.5 0.8
01/06:00pm 10.8 6.8 9.1 89 0.9 WNW 20 26 11 14 1013.1 1013.2 0.8
01/05:30pm 11.1 5.2 9.0 87 1.1 W 30 46 16 25 1013.0 1013.1 0.8
01/05:23pm 11.2 5.6 8.8 85 1.2 W 28 46 15 25 1013.2 1013.3 0.6
01/05:00pm 11.8 5.5 8.8 82 1.5 W 32 43 17 23 1012.4 1012.4 0.6
01/04:49pm 12.5 7.0 9.0 79 1.8 W 28 48 15 26 1012.3 1012.3 0.6
01/04:30pm 12.5 7.2 9.7 83 1.4 W 28 33 15 18 1011.8 1011.8 0.6
01/04:00pm 12.7 6.7 10.2 85 1.3 W 32 50 17 27 1011.6 1011.6 0.2

Other formats

Comma delimited format used in spreadsheet applications
http://www.bom.gov.au/fwo/IDS60801/IDS60801.95662.axf

JavaScript Object Notation format (JSON) in row-major order
http://www.bom.gov.au/fwo/IDS60801/IDS60801.95662.json

Data quality

Most of these data are generated automatically and are frequently updated. Quality checks on data are not normally performed. It is possible for incorrect values to appear. Refer to information at About Latest Weather Observations and please check the disclaimer before using these data.